sensor_id;sensor_type;location;lat;lon;timestamp;pressure;altitude;pressure_sealevel;temperature;humidity
71384;BME280;61466;52.166;5.004;2023-01-27T00:00:02;102684.22;;;7.66;64.31
71384;BME280;61466;52.166;5.004;2023-01-27T00:02:27;102679.53;;;7.75;64.35
71384;BME280;61466;52.166;5.004;2023-01-27T00:04:53;102677.84;;;7.67;63.97
71384;BME280;61466;52.166;5.004;2023-01-27T00:07:18;102662.50;;;7.76;63.96
71384;BME280;61466;52.166;5.004;2023-01-27T00:09:43;102684.03;;;7.74;64.02
71384;BME280;61466;52.166;5.004;2023-01-27T00:12:21;102672.13;;;7.70;63.70
71384;BME280;61466;52.166;5.004;2023-01-27T00:15:06;102665.38;;;7.74;63.74
71384;BME280;61466;52.166;5.004;2023-01-27T00:17:32;102678.91;;;7.73;63.92
71384;BME280;61466;52.166;5.004;2023-01-27T00:19:58;102671.09;;;7.71;64.10
71384;BME280;61466;52.166;5.004;2023-01-27T00:22:24;102671.88;;;7.65;64.23
71384;BME280;61466;52.166;5.004;2023-01-27T00:25:08;102679.47;;;7.62;63.81
71384;BME280;61466;52.166;5.004;2023-01-27T00:27:34;102675.00;;;7.69;63.87
71384;BME280;61466;52.166;5.004;2023-01-27T00:30:02;102672.50;;;7.67;63.90
71384;BME280;61466;52.166;5.004;2023-01-27T00:32:29;102667.56;;;7.51;64.23
71384;BME280;61466;52.166;5.004;2023-01-27T00:35:13;102657.94;;;7.63;63.80
71384;BME280;61466;52.166;5.004;2023-01-27T00:37:41;102665.72;;;7.58;63.79
71384;BME280;61466;52.166;5.004;2023-01-27T00:40:09;102669.63;;;7.62;63.47
71384;BME280;61466;52.166;5.004;2023-01-27T00:42:35;102677.25;;;7.72;63.38
71384;BME280;61466;52.166;5.004;2023-01-27T00:45:01;102675.38;;;7.66;64.08
71384;BME280;61466;52.166;5.004;2023-01-27T00:47:47;102662.47;;;7.69;63.87
71384;BME280;61466;52.166;5.004;2023-01-27T00:50:12;102661.41;;;7.57;64.11
71384;BME280;61466;52.166;5.004;2023-01-27T00:52:38;102652.34;;;7.38;64.39
71384;BME280;61466;52.166;5.004;2023-01-27T00:55:04;102671.63;;;7.47;63.71
71384;BME280;61466;52.166;5.004;2023-01-27T00:57:29;102667.91;;;7.41;63.79
71384;BME280;61466;52.166;5.004;2023-01-27T00:59:55;102680.66;;;7.52;63.95
71384;BME280;61466;52.166;5.004;2023-01-27T01:02:20;102669.81;;;7.54;63.84
71384;BME280;61466;52.166;5.004;2023-01-27T01:04:46;102670.44;;;7.56;64.09
71384;BME280;61466;52.166;5.004;2023-01-27T01:07:11;102677.63;;;7.62;63.68
71384;BME280;61466;52.166;5.004;2023-01-27T01:09:37;102678.66;;;7.68;63.56
71384;BME280;61466;52.166;5.004;2023-01-27T01:12:02;102681.91;;;7.63;63.89
71384;BME280;61466;52.166;5.004;2023-01-27T01:14:27;102685.22;;;7.65;63.65
71384;BME280;61466;52.166;5.004;2023-01-27T01:16:53;102681.53;;;7.66;63.66
71384;BME280;61466;52.166;5.004;2023-01-27T01:19:20;102683.16;;;7.67;63.79
71384;BME280;61466;52.166;5.004;2023-01-27T01:21:46;102683.16;;;7.61;63.33
71384;BME280;61466;52.166;5.004;2023-01-27T01:24:12;102679.47;;;7.62;63.80
71384;BME280;61466;52.166;5.004;2023-01-27T01:26:37;102687.84;;;7.58;64.10
71384;BME280;61466;52.166;5.004;2023-01-27T01:29:03;102695.88;;;7.65;63.86
71384;BME280;61466;52.166;5.004;2023-01-27T01:31:28;102693.59;;;7.55;64.13
71384;BME280;61466;52.166;5.004;2023-01-27T01:33:53;102707.69;;;7.49;64.63
71384;BME280;61466;52.166;5.004;2023-01-27T01:36:19;102704.44;;;7.54;64.46
71384;BME280;61466;52.166;5.004;2023-01-27T01:38:45;102703.56;;;7.40;64.53
71384;BME280;61466;52.166;5.004;2023-01-27T01:41:16;102710.53;;;7.48;64.09
71384;BME280;61466;52.166;5.004;2023-01-27T01:43:42;102708.31;;;7.51;64.29
71384;BME280;61466;52.166;5.004;2023-01-27T01:46:09;102709.28;;;7.44;64.41
71384;BME280;61466;52.166;5.004;2023-01-27T01:51:16;102705.38;;;7.39;63.90
71384;BME280;61466;52.166;5.004;2023-01-27T01:53:57;102710.91;;;7.38;64.25
71384;BME280;61466;52.166;5.004;2023-01-27T01:56:32;102700.66;;;7.35;64.28
71384;BME280;61466;52.166;5.004;2023-01-27T01:59:03;102703.13;;;7.36;64.71
71384;BME280;61466;52.166;5.004;2023-01-27T02:01:31;102694.13;;;7.44;63.80
71384;BME280;61466;52.166;5.004;2023-01-27T02:03:59;102702.13;;;7.44;64.06
71384;BME280;61466;52.166;5.004;2023-01-27T02:06:32;102701.72;;;7.41;64.13
71384;BME280;61466;52.166;5.004;2023-01-27T02:09:00;102691.28;;;7.46;64.34
71384;BME280;61466;52.166;5.004;2023-01-27T02:11:27;102705.63;;;7.45;64.23
71384;BME280;61466;52.166;5.004;2023-01-27T02:13:52;102706.00;;;7.42;64.40
71384;BME280;61466;52.166;5.004;2023-01-27T02:16:18;102703.75;;;7.38;64.02
71384;BME280;61466;52.166;5.004;2023-01-27T02:18:43;102708.63;;;7.35;64.36
71384;BME280;61466;52.166;5.004;2023-01-27T02:21:09;102712.75;;;7.37;64.21
71384;BME280;61466;52.166;5.004;2023-01-27T02:23:59;102704.00;;;7.09;64.24
71384;BME280;61466;52.166;5.004;2023-01-27T02:26:33;102714.03;;;7.13;63.95
71384;BME280;61466;52.166;5.004;2023-01-27T02:29:09;102727.00;;;6.88;64.25
71384;BME280;61466;52.166;5.004;2023-01-27T02:31:35;102726.59;;;6.91;64.22
71384;BME280;61466;52.166;5.004;2023-01-27T02:34:07;102702.97;;;7.10;63.81
71384;BME280;61466;52.166;5.004;2023-01-27T02:36:36;102709.53;;;7.14;63.55
71384;BME280;61466;52.166;5.004;2023-01-27T02:39:04;102721.44;;;7.18;63.73
71384;BME280;61466;52.166;5.004;2023-01-27T02:42:08;102709.63;;;7.27;63.55
71384;BME280;61466;52.166;5.004;2023-01-27T02:44:34;102727.19;;;7.22;63.37
71384;BME280;61466;52.166;5.004;2023-01-27T02:46:59;102717.53;;;7.14;63.95
71384;BME280;61466;52.166;5.004;2023-01-27T02:49:25;102715.75;;;7.21;63.47
71384;BME280;61466;52.166;5.004;2023-01-27T02:51:50;102723.13;;;7.26;63.85
71384;BME280;61466;52.166;5.004;2023-01-27T02:54:15;102713.72;;;7.23;64.33
71384;BME280;61466;52.166;5.004;2023-01-27T02:56:41;102727.00;;;7.23;64.46
71384;BME280;61466;52.166;5.004;2023-01-27T02:59:06;102722.63;;;7.09;64.70
71384;BME280;61466;52.166;5.004;2023-01-27T03:01:32;102726.56;;;7.20;64.33
71384;BME280;61466;52.166;5.004;2023-01-27T03:03:57;102734.47;;;7.06;64.76
71384;BME280;61466;52.166;5.004;2023-01-27T03:06:23;102732.72;;;6.92;64.96
71384;BME280;61466;52.166;5.004;2023-01-27T03:08:48;102752.16;;;6.92;65.21
71384;BME280;61466;52.166;5.004;2023-01-27T03:11:14;102743.81;;;6.95;64.72
71384;BME280;61466;52.166;5.004;2023-01-27T03:13:59;102756.19;;;6.82;64.96
71384;BME280;61466;52.166;5.004;2023-01-27T03:16:25;102748.81;;;6.84;65.50
71384;BME280;61466;52.166;5.004;2023-01-27T03:19:09;102747.25;;;6.89;65.17
71384;BME280;61466;52.166;5.004;2023-01-27T03:21:34;102752.47;;;6.76;65.34
71384;BME280;61466;52.166;5.004;2023-01-27T03:23:59;102748.50;;;6.65;65.41
71384;BME280;61466;52.166;5.004;2023-01-27T03:26:25;102755.88;;;6.70;64.75
71384;BME280;61466;52.166;5.004;2023-01-27T03:28:50;102760.34;;;6.63;65.05
71384;BME280;61466;52.166;5.004;2023-01-27T03:31:35;102756.13;;;6.53;65.14
71384;BME280;61466;52.166;5.004;2023-01-27T03:34:01;102754.13;;;6.55;64.63
71384;BME280;61466;52.166;5.004;2023-01-27T03:36:26;102758.91;;;6.45;65.01
71384;BME280;61466;52.166;5.004;2023-01-27T03:39:13;102757.75;;;6.48;64.59
71384;BME280;61466;52.166;5.004;2023-01-27T03:41:57;102783.34;;;6.34;64.89
71384;BME280;61466;52.166;5.004;2023-01-27T03:44:41;102778.38;;;6.46;64.96
71384;BME280;61466;52.166;5.004;2023-01-27T03:47:25;102784.91;;;6.43;65.04
71384;BME280;61466;52.166;5.004;2023-01-27T03:49:51;102777.00;;;6.50;64.71
71384;BME280;61466;52.166;5.004;2023-01-27T03:52:17;102795.97;;;6.47;64.91
71384;BME280;61466;52.166;5.004;2023-01-27T03:54:43;102774.38;;;6.35;65.07
71384;BME280;61466;52.166;5.004;2023-01-27T03:57:08;102782.25;;;6.43;64.70
71384;BME280;61466;52.166;5.004;2023-01-27T03:59:34;102776.28;;;6.41;64.76
71384;BME280;61466;52.166;5.004;2023-01-27T04:02:02;102796.53;;;6.42;64.88
71384;BME280;61466;52.166;5.004;2023-01-27T04:04:46;102790.06;;;6.51;64.78
71384;BME280;61466;52.166;5.004;2023-01-27T04:07:33;102785.97;;;6.49;64.86
71384;BME280;61466;52.166;5.004;2023-01-27T04:09:58;102787.41;;;6.51;64.76
71384;BME280;61466;52.166;5.004;2023-01-27T04:12:24;102786.41;;;6.52;64.37
71384;BME280;61466;52.166;5.004;2023-01-27T04:14:50;102783.94;;;6.51;64.22
71384;BME280;61466;52.166;5.004;2023-01-27T04:17:18;102790.97;;;6.37;63.97
71384;BME280;61466;52.166;5.004;2023-01-27T04:19:44;102823.94;;;6.43;63.53
71384;BME280;61466;52.166;5.004;2023-01-27T04:22:13;102799.06;;;6.50;63.74
71384;BME280;61466;52.166;5.004;2023-01-27T04:24:40;102803.56;;;6.50;63.16
71384;BME280;61466;52.166;5.004;2023-01-27T04:27:09;102793.75;;;6.50;63.21
71384;BME280;61466;52.166;5.004;2023-01-27T04:29:37;102805.78;;;6.46;62.78
71384;BME280;61466;52.166;5.004;2023-01-27T04:32:06;102785.38;;;6.32;62.80
71384;BME280;61466;52.166;5.004;2023-01-27T04:34:32;102807.28;;;6.55;63.32
71384;BME280;61466;52.166;5.004;2023-01-27T04:36:58;102809.94;;;6.55;63.03
71384;BME280;61466;52.166;5.004;2023-01-27T04:39:24;102797.28;;;6.57;63.05
71384;BME280;61466;52.166;5.004;2023-01-27T04:41:50;102811.16;;;6.53;63.18
71384;BME280;61466;52.166;5.004;2023-01-27T04:44:16;102803.44;;;6.58;63.08
71384;BME280;61466;52.166;5.004;2023-01-27T04:46:45;102809.09;;;6.70;62.72
71384;BME280;61466;52.166;5.004;2023-01-27T04:49:11;102810.34;;;6.74;62.47
71384;BME280;61466;52.166;5.004;2023-01-27T04:51:36;102802.72;;;6.71;62.73
71384;BME280;61466;52.166;5.004;2023-01-27T04:54:02;102806.03;;;6.73;62.41
71384;BME280;61466;52.166;5.004;2023-01-27T04:56:40;102800.34;;;6.76;62.67
71384;BME280;61466;52.166;5.004;2023-01-27T04:59:09;102807.34;;;6.84;62.28
71384;BME280;61466;52.166;5.004;2023-01-27T05:01:35;102806.34;;;6.85;62.23
71384;BME280;61466;52.166;5.004;2023-01-27T05:04:01;102819.38;;;6.80;62.33
71384;BME280;61466;52.166;5.004;2023-01-27T05:06:26;102820.88;;;6.82;62.06
71384;BME280;61466;52.166;5.004;2023-01-27T05:08:52;102807.16;;;6.85;61.67
71384;BME280;61466;52.166;5.004;2023-01-27T05:11:18;102819.84;;;6.83;61.68
71384;BME280;61466;52.166;5.004;2023-01-27T05:13:44;102802.09;;;6.69;61.70
71384;BME280;61466;52.166;5.004;2023-01-27T05:16:16;102812.69;;;6.62;61.46
71384;BME280;61466;52.166;5.004;2023-01-27T05:18:43;102817.88;;;6.70;61.44
71384;BME280;61466;52.166;5.004;2023-01-27T05:21:15;102829.34;;;6.71;61.41
71384;BME280;61466;52.166;5.004;2023-01-27T05:23:41;102828.00;;;6.82;61.15
71384;BME280;61466;52.166;5.004;2023-01-27T05:26:13;102829.97;;;6.73;61.09
71384;BME280;61466;52.166;5.004;2023-01-27T05:28:43;102838.84;;;6.80;60.88
71384;BME280;61466;52.166;5.004;2023-01-27T05:31:14;102835.34;;;6.80;60.99
71384;BME280;61466;52.166;5.004;2023-01-27T05:33:42;102837.94;;;6.73;60.86
71384;BME280;61466;52.166;5.004;2023-01-27T05:36:11;102841.31;;;6.82;60.75
71384;BME280;61466;52.166;5.004;2023-01-27T05:38:37;102840.75;;;6.86;60.69
71384;BME280;61466;52.166;5.004;2023-01-27T05:41:04;102830.75;;;6.88;60.92
71384;BME280;61466;52.166;5.004;2023-01-27T05:43:32;102842.78;;;6.84;60.89
71384;BME280;61466;52.166;5.004;2023-01-27T05:48:32;102856.91;;;6.85;60.44
71384;BME280;61466;52.166;5.004;2023-01-27T05:50:58;102856.44;;;6.81;60.50
71384;BME280;61466;52.166;5.004;2023-01-27T05:53:24;102848.53;;;6.88;60.30
71384;BME280;61466;52.166;5.004;2023-01-27T05:55:50;102851.75;;;6.83;60.70
71384;BME280;61466;52.166;5.004;2023-01-27T05:58:16;102846.63;;;6.82;60.39
71384;BME280;61466;52.166;5.004;2023-01-27T06:00:42;102847.84;;;6.79;60.58
71384;BME280;61466;52.166;5.004;2023-01-27T06:03:07;102854.41;;;6.83;60.48
71384;BME280;61466;52.166;5.004;2023-01-27T06:05:36;102862.91;;;6.72;60.23
71384;BME280;61466;52.166;5.004;2023-01-27T06:08:01;102856.97;;;6.70;60.25
71384;BME280;61466;52.166;5.004;2023-01-27T06:10:27;102857.78;;;6.70;60.02
71384;BME280;61466;52.166;5.004;2023-01-27T06:12:52;102856.63;;;6.58;60.15
71384;BME280;61466;52.166;5.004;2023-01-27T06:15:18;102860.06;;;6.73;59.95
71384;BME280;61466;52.166;5.004;2023-01-27T06:17:43;102855.81;;;6.79;60.06
71384;BME280;61466;52.166;5.004;2023-01-27T06:20:09;102868.47;;;6.77;59.44
71384;BME280;61466;52.166;5.004;2023-01-27T06:22:34;102866.38;;;6.72;59.32
71384;BME280;61466;52.166;5.004;2023-01-27T06:25:00;102863.91;;;6.71;59.70
71384;BME280;61466;52.166;5.004;2023-01-27T06:27:25;102861.63;;;6.68;58.99
71384;BME280;61466;52.166;5.004;2023-01-27T06:29:51;102874.47;;;6.64;59.67
71384;BME280;61466;52.166;5.004;2023-01-27T06:32:16;102871.81;;;6.64;58.78
71384;BME280;61466;52.166;5.004;2023-01-27T06:34:42;102878.63;;;6.67;58.35
71384;BME280;61466;52.166;5.004;2023-01-27T06:37:07;102873.31;;;6.67;58.45
71384;BME280;61466;52.166;5.004;2023-01-27T06:39:33;102867.06;;;6.60;58.56
71384;BME280;61466;52.166;5.004;2023-01-27T06:41:59;102875.22;;;6.58;57.87
71384;BME280;61466;52.166;5.004;2023-01-27T06:44:24;102885.44;;;6.54;57.63
71384;BME280;61466;52.166;5.004;2023-01-27T06:46:49;102876.44;;;6.55;57.60
71384;BME280;61466;52.166;5.004;2023-01-27T06:49:23;102901.00;;;6.57;57.60
71384;BME280;61466;52.166;5.004;2023-01-27T06:51:50;102890.13;;;6.52;57.98
71384;BME280;61466;52.166;5.004;2023-01-27T06:54:15;102879.09;;;6.55;58.19
71384;BME280;61466;52.166;5.004;2023-01-27T06:56:41;102882.50;;;6.49;57.68
71384;BME280;61466;52.166;5.004;2023-01-27T06:59:06;102878.44;;;6.53;58.09
71384;BME280;61466;52.166;5.004;2023-01-27T07:01:32;102884.22;;;6.57;57.68
71384;BME280;61466;52.166;5.004;2023-01-27T07:03:57;102888.59;;;6.43;57.32
71384;BME280;61466;52.166;5.004;2023-01-27T07:06:23;102878.09;;;6.56;58.08
71384;BME280;61466;52.166;5.004;2023-01-27T07:08:49;102880.13;;;6.54;58.02
71384;BME280;61466;52.166;5.004;2023-01-27T07:11:16;102888.09;;;6.54;58.18
71384;BME280;61466;52.166;5.004;2023-01-27T07:13:41;102890.75;;;6.54;57.42
71384;BME280;61466;52.166;5.004;2023-01-27T07:16:07;102881.50;;;6.50;57.71
71384;BME280;61466;52.166;5.004;2023-01-27T07:18:32;102885.72;;;6.45;57.54
71384;BME280;61466;52.166;5.004;2023-01-27T07:20:58;102892.03;;;6.59;57.34
71384;BME280;61466;52.166;5.004;2023-01-27T07:23:23;102890.38;;;6.57;57.89
71384;BME280;61466;52.166;5.004;2023-01-27T07:25:48;102895.44;;;6.52;57.46
71384;BME280;61466;52.166;5.004;2023-01-27T07:28:14;102898.84;;;6.46;57.52
71384;BME280;61466;52.166;5.004;2023-01-27T07:30:39;102906.72;;;6.54;57.25
71384;BME280;61466;52.166;5.004;2023-01-27T07:33:09;102919.63;;;6.57;57.54
71384;BME280;61466;52.166;5.004;2023-01-27T07:35:35;102905.03;;;6.53;57.23
71384;BME280;61466;52.166;5.004;2023-01-27T07:38:01;102918.16;;;6.55;57.37
71384;BME280;61466;52.166;5.004;2023-01-27T07:40:26;102918.16;;;6.55;57.34
71384;BME280;61466;52.166;5.004;2023-01-27T07:42:51;102926.41;;;6.45;57.49
71384;BME280;61466;52.166;5.004;2023-01-27T07:45:17;102934.03;;;6.48;57.44
71384;BME280;61466;52.166;5.004;2023-01-27T07:47:42;102939.28;;;6.42;58.09
71384;BME280;61466;52.166;5.004;2023-01-27T07:50:08;102935.13;;;6.54;57.58
71384;BME280;61466;52.166;5.004;2023-01-27T07:52:34;102935.88;;;6.48;58.14
71384;BME280;61466;52.166;5.004;2023-01-27T07:55:00;102928.34;;;6.51;57.87
71384;BME280;61466;52.166;5.004;2023-01-27T07:57:25;102925.50;;;6.53;57.93
71384;BME280;61466;52.166;5.004;2023-01-27T07:59:50;102928.22;;;6.60;58.17
71384;BME280;61466;52.166;5.004;2023-01-27T08:02:20;102927.66;;;6.64;58.31
71384;BME280;61466;52.166;5.004;2023-01-27T08:04:49;102920.53;;;6.65;58.33
71384;BME280;61466;52.166;5.004;2023-01-27T08:07:15;102929.50;;;6.64;58.11
71384;BME280;61466;52.166;5.004;2023-01-27T08:09:40;102932.06;;;6.72;58.29
71384;BME280;61466;52.166;5.004;2023-01-27T08:12:05;102931.50;;;6.76;58.06
71384;BME280;61466;52.166;5.004;2023-01-27T08:14:31;102937.47;;;6.79;58.07
71384;BME280;61466;52.166;5.004;2023-01-27T08:16:57;102931.69;;;6.75;57.96
71384;BME280;61466;52.166;5.004;2023-01-27T08:19:22;102935.63;;;6.79;57.82
71384;BME280;61466;52.166;5.004;2023-01-27T08:21:47;102934.41;;;6.82;57.62
71384;BME280;61466;52.166;5.004;2023-01-27T08:24:13;102932.31;;;6.77;57.56
71384;BME280;61466;52.166;5.004;2023-01-27T08:26:38;102937.34;;;6.87;57.38
71384;BME280;61466;52.166;5.004;2023-01-27T08:29:04;102928.97;;;6.90;57.79
71384;BME280;61466;52.166;5.004;2023-01-27T08:31:29;102921.63;;;6.92;57.06
71384;BME280;61466;52.166;5.004;2023-01-27T08:33:55;102919.03;;;6.98;57.73
71384;BME280;61466;52.166;5.004;2023-01-27T08:36:21;102926.28;;;7.05;57.48
71384;BME280;61466;52.166;5.004;2023-01-27T08:38:47;102933.50;;;7.11;57.02
71384;BME280;61466;52.166;5.004;2023-01-27T08:41:16;102941.94;;;7.14;56.75
71384;BME280;61466;52.166;5.004;2023-01-27T08:43:42;102940.72;;;7.17;56.93
71384;BME280;61466;52.166;5.004;2023-01-27T08:46:08;102924.94;;;7.15;56.75
71384;BME280;61466;52.166;5.004;2023-01-27T08:48:37;102928.09;;;7.04;56.17
71384;BME280;61466;52.166;5.004;2023-01-27T08:51:04;102933.38;;;6.97;55.89
71384;BME280;61466;52.166;5.004;2023-01-27T08:53:30;102930.88;;;6.96;56.45
71384;BME280;61466;52.166;5.004;2023-01-27T08:55:57;102938.31;;;7.01;56.33
71384;BME280;61466;52.166;5.004;2023-01-27T08:58:23;102942.34;;;6.96;56.43
71384;BME280;61466;52.166;5.004;2023-01-27T09:00:48;102943.00;;;6.98;56.09
71384;BME280;61466;52.166;5.004;2023-01-27T09:03:14;102935.06;;;7.05;56.20
71384;BME280;61466;52.166;5.004;2023-01-27T09:05:40;102945.59;;;7.13;56.48
71384;BME280;61466;52.166;5.004;2023-01-27T09:08:06;102956.94;;;7.22;56.70
71384;BME280;61466;52.166;5.004;2023-01-27T09:10:36;102952.88;;;7.26;56.43
71384;BME280;61466;52.166;5.004;2023-01-27T09:13:01;102957.84;;;7.29;56.20
71384;BME280;61466;52.166;5.004;2023-01-27T09:15:27;102951.25;;;7.25;56.09
71384;BME280;61466;52.166;5.004;2023-01-27T09:17:52;102953.16;;;7.31;55.96
71384;BME280;61466;52.166;5.004;2023-01-27T09:20:18;102956.19;;;7.28;56.43
71384;BME280;61466;52.166;5.004;2023-01-27T09:22:43;102954.28;;;7.22;56.01
71384;BME280;61466;52.166;5.004;2023-01-27T09:25:16;102952.88;;;7.26;56.00
71384;BME280;61466;52.166;5.004;2023-01-27T09:27:42;102956.00;;;7.30;56.16
71384;BME280;61466;52.166;5.004;2023-01-27T09:30:09;102963.34;;;7.28;56.08
71384;BME280;61466;52.166;5.004;2023-01-27T09:32:35;102972.28;;;7.20;56.39
71384;BME280;61466;52.166;5.004;2023-01-27T09:35:00;102969.94;;;7.10;56.47
71384;BME280;61466;52.166;5.004;2023-01-27T09:37:26;102968.28;;;7.09;56.10
71384;BME280;61466;52.166;5.004;2023-01-27T09:39:55;102963.59;;;7.11;55.83
71384;BME280;61466;52.166;5.004;2023-01-27T09:50:38;102959.03;;;7.05;56.49
71384;BME280;61466;52.166;5.004;2023-01-27T09:56:05;102969.13;;;7.10;55.88
71384;BME280;61466;52.166;5.004;2023-01-27T10:04:53;102956.75;;;7.24;56.28
71384;BME280;61466;52.166;5.004;2023-01-27T10:15:35;102968.84;;;7.26;56.33
71384;BME280;61466;52.166;5.004;2023-01-27T10:21:04;102974.47;;;7.31;56.34
71384;BME280;61466;52.166;5.004;2023-01-27T10:27:24;102996.56;;;7.53;56.60
71384;BME280;61466;52.166;5.004;2023-01-27T10:30:09;102983.25;;;7.53;56.51
71384;BME280;61466;52.166;5.004;2023-01-27T10:32:44;102978.16;;;7.58;56.18
71384;BME280;61466;52.166;5.004;2023-01-27T10:35:16;102989.97;;;7.71;56.04
71384;BME280;61466;52.166;5.004;2023-01-27T10:43:03;102994.09;;;7.52;56.38
71384;BME280;61466;52.166;5.004;2023-01-27T10:45:36;102988.00;;;7.58;56.54
71384;BME280;61466;52.166;5.004;2023-01-27T10:51:03;102994.25;;;7.72;56.50
71384;BME280;61466;52.166;5.004;2023-01-27T10:53:36;102988.16;;;7.78;56.57
71384;BME280;61466;52.166;5.004;2023-01-27T10:56:11;102993.63;;;7.70;56.49
71384;BME280;61466;52.166;5.004;2023-01-27T10:58:56;102996.09;;;7.71;56.61
71384;BME280;61466;52.166;5.004;2023-01-27T11:01:29;102984.38;;;7.66;56.87
71384;BME280;61466;52.166;5.004;2023-01-27T11:04:11;102981.28;;;7.62;57.08
71384;BME280;61466;52.166;5.004;2023-01-27T11:06:40;102987.44;;;7.63;56.85
71384;BME280;61466;52.166;5.004;2023-01-27T11:09:12;102978.97;;;7.59;56.95
71384;BME280;61466;52.166;5.004;2023-01-27T11:11:41;102980.56;;;7.75;57.15
71384;BME280;61466;52.166;5.004;2023-01-27T11:14:30;102996.34;;;7.76;57.07
71384;BME280;61466;52.166;5.004;2023-01-27T11:17:11;102979.94;;;7.73;57.01
71384;BME280;61466;52.166;5.004;2023-01-27T11:19:58;102975.66;;;7.78;56.93
71384;BME280;61466;52.166;5.004;2023-01-27T11:28:14;102972.72;;;7.67;56.75
71384;BME280;61466;52.166;5.004;2023-01-27T11:30:53;102986.78;;;7.61;57.31
71384;BME280;61466;52.166;5.004;2023-01-27T11:33:22;102974.06;;;7.56;57.27
71384;BME280;61466;52.166;5.004;2023-01-27T11:35:52;102979.78;;;7.53;58.13
71384;BME280;61466;52.166;5.004;2023-01-27T11:38:20;102976.09;;;7.54;57.77
71384;BME280;61466;52.166;5.004;2023-01-27T11:40:47;102971.22;;;7.57;57.88
71384;BME280;61466;52.166;5.004;2023-01-27T11:43:18;102983.69;;;7.57;57.81
71384;BME280;61466;52.166;5.004;2023-01-27T11:45:44;102973.41;;;7.54;58.04
71384;BME280;61466;52.166;5.004;2023-01-27T11:48:14;102966.19;;;7.48;58.33
71384;BME280;61466;52.166;5.004;2023-01-27T11:50:41;102975.38;;;7.45;58.28
71384;BME280;61466;52.166;5.004;2023-01-27T11:53:26;102961.84;;;7.40;58.57
71384;BME280;61466;52.166;5.004;2023-01-27T11:55:59;102964.63;;;7.53;57.89
71384;BME280;61466;52.166;5.004;2023-01-27T11:58:31;102955.00;;;7.59;58.35
71384;BME280;61466;52.166;5.004;2023-01-27T12:01:00;102959.78;;;7.64;58.48
71384;BME280;61466;52.166;5.004;2023-01-27T12:06:14;102957.53;;;7.67;57.79
71384;BME280;61466;52.166;5.004;2023-01-27T12:08:44;102952.41;;;7.66;57.58
71384;BME280;61466;52.166;5.004;2023-01-27T12:11:21;102955.31;;;7.71;57.82
71384;BME280;61466;52.166;5.004;2023-01-27T12:16:19;102945.34;;;7.79;56.53
71384;BME280;61466;52.166;5.004;2023-01-27T12:19:02;102938.66;;;7.90;56.76
71384;BME280;61466;52.166;5.004;2023-01-27T12:21:39;102938.22;;;7.87;56.03
71384;BME280;61466;52.166;5.004;2023-01-27T12:26:51;102936.19;;;7.89;56.09
71384;BME280;61466;52.166;5.004;2023-01-27T12:29:19;102933.31;;;7.90;56.37
71384;BME280;61466;52.166;5.004;2023-01-27T12:31:49;102935.13;;;7.83;56.16
71384;BME280;61466;52.166;5.004;2023-01-27T12:34:24;102934.50;;;7.81;56.27
71384;BME280;61466;52.166;5.004;2023-01-27T12:36:52;102934.06;;;7.77;55.69
71384;BME280;61466;52.166;5.004;2023-01-27T12:39:41;102927.56;;;7.87;55.60
71384;BME280;61466;52.166;5.004;2023-01-27T12:45:28;102932.97;;;7.72;56.14
71384;BME280;61466;52.166;5.004;2023-01-27T12:50:34;102937.41;;;7.86;56.22
71384;BME280;61466;52.166;5.004;2023-01-27T12:53:14;102930.31;;;7.72;57.14
71384;BME280;61466;52.166;5.004;2023-01-27T12:58:05;102921.56;;;7.78;57.12
71384;BME280;61466;52.166;5.004;2023-01-27T13:00:48;102921.19;;;7.81;56.93
71384;BME280;61466;52.166;5.004;2023-01-27T13:03:13;102914.56;;;7.70;57.76
71384;BME280;61466;52.166;5.004;2023-01-27T13:05:41;102916.00;;;7.73;57.63
71384;BME280;61466;52.166;5.004;2023-01-27T13:08:15;102922.53;;;7.70;57.34
71384;BME280;61466;52.166;5.004;2023-01-27T13:10:57;102910.47;;;7.74;57.11
71384;BME280;61466;52.166;5.004;2023-01-27T13:13:27;102902.41;;;7.68;57.13
71384;BME280;61466;52.166;5.004;2023-01-27T13:16:17;102904.03;;;7.62;57.15
71384;BME280;61466;52.166;5.004;2023-01-27T13:18:55;102906.94;;;7.67;57.24
71384;BME280;61466;52.166;5.004;2023-01-27T13:21:24;102911.44;;;7.67;57.39
71384;BME280;61466;52.166;5.004;2023-01-27T13:23:52;102908.31;;;7.63;57.35
71384;BME280;61466;52.166;5.004;2023-01-27T13:26:33;102895.06;;;7.42;57.35
71384;BME280;61466;52.166;5.004;2023-01-27T13:32:02;102922.94;;;7.46;56.33
71384;BME280;61466;52.166;5.004;2023-01-27T13:34:44;102921.56;;;7.50;56.68
71384;BME280;61466;52.166;5.004;2023-01-27T13:37:23;102929.53;;;7.50;56.02
71384;BME280;61466;52.166;5.004;2023-01-27T13:40:02;102915.78;;;7.46;56.52
71384;BME280;61466;52.166;5.004;2023-01-27T13:42:50;102928.72;;;7.49;57.16
71384;BME280;61466;52.166;5.004;2023-01-27T13:45:28;102930.19;;;7.52;57.12
71384;BME280;61466;52.166;5.004;2023-01-27T13:53:18;102934.19;;;7.41;57.55
71384;BME280;61466;52.166;5.004;2023-01-27T13:58:36;102934.63;;;7.45;57.81
71384;BME280;61466;52.166;5.004;2023-01-27T14:01:27;102929.44;;;7.36;57.54
71384;BME280;61466;52.166;5.004;2023-01-27T14:15:31;102943.38;;;7.17;58.87
71384;BME280;61466;52.166;5.004;2023-01-27T14:18:14;102942.28;;;7.11;58.64
71384;BME280;61466;52.166;5.004;2023-01-27T14:23:37;102950.91;;;7.13;58.59
71384;BME280;61466;52.166;5.004;2023-01-27T14:37:15;102947.94;;;7.02;59.51
71384;BME280;61466;52.166;5.004;2023-01-27T14:40:04;102964.78;;;6.87;59.53
71384;BME280;61466;52.166;5.004;2023-01-27T15:04:09;102980.03;;;6.79;59.96
71384;BME280;61466;52.166;5.004;2023-01-27T15:18:02;102978.41;;;6.63;59.14
71384;BME280;61466;52.166;5.004;2023-01-27T15:26:21;102988.25;;;6.84;59.06
71384;BME280;61466;52.166;5.004;2023-01-27T15:28:47;102984.84;;;6.90;58.69
71384;BME280;61466;52.166;5.004;2023-01-27T15:33:58;102975.91;;;6.76;59.59
71384;BME280;61466;52.166;5.004;2023-01-27T15:36:56;102983.41;;;6.72;59.73